Blacklick, Ohio
Current Conditions -  °F | °C
As of 7:31 AM on Monday 26 Jan 2015 (Local Time) from KCMH Reporting Station
Light Snow Light Snow  
Wind Chill:   Ceiling: 5000
Heat Index: 21°   Visibility: 5mi
Dew Point: 18°   Wind: 15mph
Humidity: 86%   Direction: 350°N
Pressure: 29.77"   Gusts: NA
Location:  40°N, 82.81°W
Report Text: KCMH 261231Z 35013KT 5SM -SN BR BKN050 BKN070 OVC085 M06/M08 A2977 RMK AO2 P0001
Loading
Personal Weather Stations






























Interactive Weather Map New forecast layout! Learn more

10-Day Weather Forecast

Advertisements
Track Severe Weather on mobile